sensor_id;sensor_type;location;lat;lon;timestamp;temperature;humidity
34145;HTU21D;69555;53.014;8.886;2023-12-28T00:01:47;8.27;91.82
34145;HTU21D;69555;53.014;8.886;2023-12-28T00:04:13;8.22;92.92
34145;HTU21D;69555;53.014;8.886;2023-12-28T00:06:40;8.13;94.66
34145;HTU21D;69555;53.014;8.886;2023-12-28T00:09:06;8.07;95.63
34145;HTU21D;69555;53.014;8.886;2023-12-28T00:11:32;8.03;95.69
34145;HTU21D;69555;53.014;8.886;2023-12-28T00:13:57;7.99;96.79
34145;HTU21D;69555;53.014;8.886;2023-12-28T00:16:24;7.96;97.07
34145;HTU21D;69555;53.014;8.886;2023-12-28T00:18:50;8.02;96.48
34145;HTU21D;69555;53.014;8.886;2023-12-28T00:21:17;8.02;96.64
34145;HTU21D;69555;53.014;8.886;2023-12-28T00:23:44;8.08;95.95
34145;HTU21D;69555;53.014;8.886;2023-12-28T00:26:11;8.04;96.87
34145;HTU21D;69555;53.014;8.886;2023-12-28T00:28:37;8.05;96.69
34145;HTU21D;69555;53.014;8.886;2023-12-28T00:31:04;8.07;96.81
34145;HTU21D;69555;53.014;8.886;2023-12-28T00:33:31;8.08;96.74
34145;HTU21D;69555;53.014;8.886;2023-12-28T00:35:57;8.13;96.91
34145;HTU21D;69555;53.014;8.886;2023-12-28T00:38:24;8.14;96.65
34145;HTU21D;69555;53.014;8.886;2023-12-28T00:40:50;8.12;97.10
34145;HTU21D;69555;53.014;8.886;2023-12-28T00:43:17;8.15;97.48
34145;HTU21D;69555;53.014;8.886;2023-12-28T00:45:44;8.09;97.78
34145;HTU21D;69555;53.014;8.886;2023-12-28T00:48:10;8.09;98.06
34145;HTU21D;69555;53.014;8.886;2023-12-28T00:50:37;8.15;97.55
34145;HTU21D;69555;53.014;8.886;2023-12-28T00:53:04;8.14;97.87
34145;HTU21D;69555;53.014;8.886;2023-12-28T00:55:31;8.12;97.88
34145;HTU21D;69555;53.014;8.886;2023-12-28T00:57:57;8.08;97.93
34145;HTU21D;69555;53.014;8.886;2023-12-28T01:00:24;8.08;97.92
34145;HTU21D;69555;53.014;8.886;2023-12-28T01:02:50;8.09;97.58
34145;HTU21D;69555;53.014;8.886;2023-12-28T01:05:17;8.08;97.71
34145;HTU21D;69555;53.014;8.886;2023-12-28T01:07:43;8.07;97.87
34145;HTU21D;69555;53.014;8.886;2023-12-28T01:10:10;8.11;97.64
34145;HTU21D;69555;53.014;8.886;2023-12-28T01:12:36;8.07;97.92
34145;HTU21D;69555;53.014;8.886;2023-12-28T01:15:02;8.05;98.09
34145;HTU21D;69555;53.014;8.886;2023-12-28T01:17:29;8.06;98.29
34145;HTU21D;69555;53.014;8.886;2023-12-28T01:19:55;8.11;97.95
34145;HTU21D;69555;53.014;8.886;2023-12-28T01:22:22;8.03;98.44
34145;HTU21D;69555;53.014;8.886;2023-12-28T01:24:48;8.06;98.42
34145;HTU21D;69555;53.014;8.886;2023-12-28T01:27:16;8.04;98.52
34145;HTU21D;69555;53.014;8.886;2023-12-28T01:29:42;8.05;98.45
34145;HTU21D;69555;53.014;8.886;2023-12-28T01:32:09;8.09;98.25
34145;HTU21D;69555;53.014;8.886;2023-12-28T01:34:36;8.12;98.04
34145;HTU21D;69555;53.014;8.886;2023-12-28T01:37:03;8.07;98.42
34145;HTU21D;69555;53.014;8.886;2023-12-28T01:39:29;8.16;98.18
34145;HTU21D;69555;53.014;8.886;2023-12-28T01:41:56;8.19;98.05
34145;HTU21D;69555;53.014;8.886;2023-12-28T01:44:24;8.21;98.04
34145;HTU21D;69555;53.014;8.886;2023-12-28T01:46:50;8.27;97.83
34145;HTU21D;69555;53.014;8.886;2023-12-28T01:49:16;8.30;97.75
34145;HTU21D;69555;53.014;8.886;2023-12-28T01:51:44;8.38;97.26
34145;HTU21D;69555;53.014;8.886;2023-12-28T01:54:11;8.42;97.16
34145;HTU21D;69555;53.014;8.886;2023-12-28T01:56:39;8.42;97.20
34145;HTU21D;69555;53.014;8.886;2023-12-28T01:59:05;8.44;97.25
34145;HTU21D;69555;53.014;8.886;2023-12-28T02:01:33;8.35;97.52
34145;HTU21D;69555;53.014;8.886;2023-12-28T02:04:00;8.35;97.34
34145;HTU21D;69555;53.014;8.886;2023-12-28T02:06:28;8.35;97.35
34145;HTU21D;69555;53.014;8.886;2023-12-28T02:08:54;8.42;96.85
34145;HTU21D;69555;53.014;8.886;2023-12-28T02:11:21;8.31;97.52
34145;HTU21D;69555;53.014;8.886;2023-12-28T02:13:48;8.35;97.43
34145;HTU21D;69555;53.014;8.886;2023-12-28T02:16:28;8.34;97.31
34145;HTU21D;69555;53.014;8.886;2023-12-28T02:19:00;8.29;97.77
34145;HTU21D;69555;53.014;8.886;2023-12-28T02:21:31;8.32;97.34
34145;HTU21D;69555;53.014;8.886;2023-12-28T02:23:58;8.29;97.60
34145;HTU21D;69555;53.014;8.886;2023-12-28T02:26:24;8.28;97.68
34145;HTU21D;69555;53.014;8.886;2023-12-28T02:28:51;8.33;97.32
34145;HTU21D;69555;53.014;8.886;2023-12-28T02:31:32;8.27;97.61
34145;HTU21D;69555;53.014;8.886;2023-12-28T02:34:16;8.30;97.42
34145;HTU21D;69555;53.014;8.886;2023-12-28T02:36:46;8.27;97.64
34145;HTU21D;69555;53.014;8.886;2023-12-28T02:39:15;8.32;97.36
34145;HTU21D;69555;53.014;8.886;2023-12-28T02:41:46;8.37;96.84
34145;HTU21D;69555;53.014;8.886;2023-12-28T02:44:13;8.30;97.38
34145;HTU21D;69555;53.014;8.886;2023-12-28T02:46:39;8.36;96.87
34145;HTU21D;69555;53.014;8.886;2023-12-28T02:49:06;8.36;96.78
34145;HTU21D;69555;53.014;8.886;2023-12-28T02:51:33;8.35;96.89
34145;HTU21D;69555;53.014;8.886;2023-12-28T02:54:00;8.30;97.37
34145;HTU21D;69555;53.014;8.886;2023-12-28T02:56:26;8.36;96.75
34145;HTU21D;69555;53.014;8.886;2023-12-28T02:58:53;8.38;96.62
34145;HTU21D;69555;53.014;8.886;2023-12-28T03:01:19;8.35;96.86
34145;HTU21D;69555;53.014;8.886;2023-12-28T03:03:46;8.39;96.60
34145;HTU21D;69555;53.014;8.886;2023-12-28T03:06:13;8.34;96.91
34145;HTU21D;69555;53.014;8.886;2023-12-28T03:08:39;8.38;96.80
34145;HTU21D;69555;53.014;8.886;2023-12-28T03:11:06;8.34;96.99
34145;HTU21D;69555;53.014;8.886;2023-12-28T03:13:32;8.36;96.78
34145;HTU21D;69555;53.014;8.886;2023-12-28T03:15:59;8.39;96.70
34145;HTU21D;69555;53.014;8.886;2023-12-28T03:18:25;8.36;96.94
34145;HTU21D;69555;53.014;8.886;2023-12-28T03:20:52;8.36;96.96
34145;HTU21D;69555;53.014;8.886;2023-12-28T03:23:19;8.39;96.77
34145;HTU21D;69555;53.014;8.886;2023-12-28T03:25:45;8.42;96.66
34145;HTU21D;69555;53.014;8.886;2023-12-28T03:28:12;8.38;96.94
34145;HTU21D;69555;53.014;8.886;2023-12-28T03:30:38;8.44;96.79
34145;HTU21D;69555;53.014;8.886;2023-12-28T03:33:05;8.39;96.95
34145;HTU21D;69555;53.014;8.886;2023-12-28T03:35:31;8.37;97.00
34145;HTU21D;69555;53.014;8.886;2023-12-28T03:37:58;8.32;97.39
34145;HTU21D;69555;53.014;8.886;2023-12-28T03:40:24;8.41;96.84
34145;HTU21D;69555;53.014;8.886;2023-12-28T03:42:51;8.32;97.46
34145;HTU21D;69555;53.014;8.886;2023-12-28T03:45:18;8.35;97.36
34145;HTU21D;69555;53.014;8.886;2023-12-28T03:47:45;8.36;97.47
34145;HTU21D;69555;53.014;8.886;2023-12-28T03:50:11;8.42;97.14
34145;HTU21D;69555;53.014;8.886;2023-12-28T03:52:38;8.39;97.43
34145;HTU21D;69555;53.014;8.886;2023-12-28T03:55:05;8.33;97.89
34145;HTU21D;69555;53.014;8.886;2023-12-28T03:57:32;8.37;97.74
34145;HTU21D;69555;53.014;8.886;2023-12-28T03:59:58;8.28;98.03
34145;HTU21D;69555;53.014;8.886;2023-12-28T04:02:25;8.27;98.27
34145;HTU21D;69555;53.014;8.886;2023-12-28T04:04:54;8.26;98.49
34145;HTU21D;69555;53.014;8.886;2023-12-28T04:07:22;8.30;98.31
34145;HTU21D;69555;53.014;8.886;2023-12-28T04:09:48;8.21;98.74
34145;HTU21D;69555;53.014;8.886;2023-12-28T04:12:14;8.22;98.84
34145;HTU21D;69555;53.014;8.886;2023-12-28T04:14:41;8.20;99.16
34145;HTU21D;69555;53.014;8.886;2023-12-28T04:17:08;8.22;99.24
34145;HTU21D;69555;53.014;8.886;2023-12-28T04:19:33;8.22;99.22
34145;HTU21D;69555;53.014;8.886;2023-12-28T04:21:59;8.20;99.35
34145;HTU21D;69555;53.014;8.886;2023-12-28T04:24:26;8.20;99.49
34145;HTU21D;69555;53.014;8.886;2023-12-28T04:26:53;8.18;99.71
34145;HTU21D;69555;53.014;8.886;2023-12-28T04:29:19;8.17;99.83
34145;HTU21D;69555;53.014;8.886;2023-12-28T04:31:45;8.22;99.50
34145;HTU21D;69555;53.014;8.886;2023-12-28T04:34:12;8.24;99.60
34145;HTU21D;69555;53.014;8.886;2023-12-28T04:36:43;8.23;99.65
34145;HTU21D;69555;53.014;8.886;2023-12-28T04:39:12;8.20;99.90
34145;HTU21D;69555;53.014;8.886;2023-12-28T04:41:38;8.22;100.03
34145;HTU21D;69555;53.014;8.886;2023-12-28T04:44:05;8.27;99.79
34145;HTU21D;69555;53.014;8.886;2023-12-28T04:46:31;8.32;99.49
34145;HTU21D;69555;53.014;8.886;2023-12-28T04:48:58;8.33;99.55
34145;HTU21D;69555;53.014;8.886;2023-12-28T04:51:24;8.20;100.20
34145;HTU21D;69555;53.014;8.886;2023-12-28T04:53:51;8.18;100.32
34145;HTU21D;69555;53.014;8.886;2023-12-28T04:56:20;8.23;100.19
34145;HTU21D;69555;53.014;8.886;2023-12-28T04:58:47;8.16;100.71
34145;HTU21D;69555;53.014;8.886;2023-12-28T05:01:14;8.18;100.57
34145;HTU21D;69555;53.014;8.886;2023-12-28T05:03:40;8.15;100.70
34145;HTU21D;69555;53.014;8.886;2023-12-28T05:06:07;8.15;101.02
34145;HTU21D;69555;53.014;8.886;2023-12-28T05:08:34;8.22;100.67
34145;HTU21D;69555;53.014;8.886;2023-12-28T05:11:00;8.19;100.83
34145;HTU21D;69555;53.014;8.886;2023-12-28T05:13:27;8.17;101.03
34145;HTU21D;69555;53.014;8.886;2023-12-28T05:15:54;8.17;100.98
34145;HTU21D;69555;53.014;8.886;2023-12-28T05:18:20;8.24;100.77
34145;HTU21D;69555;53.014;8.886;2023-12-28T05:20:47;8.27;100.68
34145;HTU21D;69555;53.014;8.886;2023-12-28T05:23:14;8.39;99.93
34145;HTU21D;69555;53.014;8.886;2023-12-28T05:25:40;8.42;99.75
34145;HTU21D;69555;53.014;8.886;2023-12-28T05:28:07;8.43;99.69
34145;HTU21D;69555;53.014;8.886;2023-12-28T05:30:34;8.43;99.63
34145;HTU21D;69555;53.014;8.886;2023-12-28T05:33:00;8.45;99.58
34145;HTU21D;69555;53.014;8.886;2023-12-28T05:35:27;8.49;99.38
34145;HTU21D;69555;53.014;8.886;2023-12-28T05:37:53;8.49;99.49
34145;HTU21D;69555;53.014;8.886;2023-12-28T05:40:20;8.58;98.93
34145;HTU21D;69555;53.014;8.886;2023-12-28T05:42:47;8.56;99.02
34145;HTU21D;69555;53.014;8.886;2023-12-28T05:45:14;8.58;98.87
34145;HTU21D;69555;53.014;8.886;2023-12-28T05:47:40;8.61;98.68
34145;HTU21D;69555;53.014;8.886;2023-12-28T05:50:07;8.74;97.84
34145;HTU21D;69555;53.014;8.886;2023-12-28T05:52:34;8.66;98.16
34145;HTU21D;69555;53.014;8.886;2023-12-28T05:55:01;8.66;98.41
34145;HTU21D;69555;53.014;8.886;2023-12-28T05:57:28;8.60;98.58
34145;HTU21D;69555;53.014;8.886;2023-12-28T05:59:57;8.62;98.39
34145;HTU21D;69555;53.014;8.886;2023-12-28T06:02:24;8.70;97.90
34145;HTU21D;69555;53.014;8.886;2023-12-28T06:04:50;8.63;98.36
34145;HTU21D;69555;53.014;8.886;2023-12-28T06:07:17;8.65;98.10
34145;HTU21D;69555;53.014;8.886;2023-12-28T06:09:43;8.77;97.32
34145;HTU21D;69555;53.014;8.886;2023-12-28T06:12:11;8.78;97.35
34145;HTU21D;69555;53.014;8.886;2023-12-28T06:14:37;8.80;97.11
34145;HTU21D;69555;53.014;8.886;2023-12-28T06:17:04;8.75;97.37
34145;HTU21D;69555;53.014;8.886;2023-12-28T06:19:30;8.81;96.94
34145;HTU21D;69555;53.014;8.886;2023-12-28T06:21:57;8.78;97.19
34145;HTU21D;69555;53.014;8.886;2023-12-28T06:24:24;8.78;97.20
34145;HTU21D;69555;53.014;8.886;2023-12-28T06:26:50;8.85;96.89
34145;HTU21D;69555;53.014;8.886;2023-12-28T06:29:17;8.87;96.55
34145;HTU21D;69555;53.014;8.886;2023-12-28T06:31:44;8.90;96.60
34145;HTU21D;69555;53.014;8.886;2023-12-28T06:34:10;8.94;96.47
34145;HTU21D;69555;53.014;8.886;2023-12-28T06:36:37;9.02;96.01
34145;HTU21D;69555;53.014;8.886;2023-12-28T06:39:04;9.09;95.94
34145;HTU21D;69555;53.014;8.886;2023-12-28T06:41:30;9.11;95.43
34145;HTU21D;69555;53.014;8.886;2023-12-28T06:43:57;9.15;95.30
34145;HTU21D;69555;53.014;8.886;2023-12-28T06:46:24;9.21;94.79
34145;HTU21D;69555;53.014;8.886;2023-12-28T06:48:50;9.22;95.26
34145;HTU21D;69555;53.014;8.886;2023-12-28T06:51:21;9.23;94.99
34145;HTU21D;69555;53.014;8.886;2023-12-28T06:53:48;9.24;94.88
34145;HTU21D;69555;53.014;8.886;2023-12-28T06:56:15;9.26;94.85
34145;HTU21D;69555;53.014;8.886;2023-12-28T06:58:42;9.33;94.56
34145;HTU21D;69555;53.014;8.886;2023-12-28T07:01:08;9.40;93.84
34145;HTU21D;69555;53.014;8.886;2023-12-28T07:03:35;9.48;93.56
34145;HTU21D;69555;53.014;8.886;2023-12-28T07:06:02;9.40;93.72
34145;HTU21D;69555;53.014;8.886;2023-12-28T07:08:30;9.42;93.62
34145;HTU21D;69555;53.014;8.886;2023-12-28T07:10:57;9.40;94.06
34145;HTU21D;69555;53.014;8.886;2023-12-28T07:13:24;9.48;93.17
34145;HTU21D;69555;53.014;8.886;2023-12-28T07:15:51;9.55;92.79
34145;HTU21D;69555;53.014;8.886;2023-12-28T07:18:17;9.54;92.87
34145;HTU21D;69555;53.014;8.886;2023-12-28T07:20:44;9.53;93.23
34145;HTU21D;69555;53.014;8.886;2023-12-28T07:23:11;9.63;92.32
34145;HTU21D;69555;53.014;8.886;2023-12-28T07:25:37;9.62;92.60
34145;HTU21D;69555;53.014;8.886;2023-12-28T07:28:04;9.64;92.39
34145;HTU21D;69555;53.014;8.886;2023-12-28T07:30:31;9.65;92.49
34145;HTU21D;69555;53.014;8.886;2023-12-28T07:32:57;9.71;92.04
34145;HTU21D;69555;53.014;8.886;2023-12-28T07:35:24;9.76;91.82
34145;HTU21D;69555;53.014;8.886;2023-12-28T07:37:50;9.77;91.56
34145;HTU21D;69555;53.014;8.886;2023-12-28T07:40:17;9.79;91.80
34145;HTU21D;69555;53.014;8.886;2023-12-28T07:42:43;9.82;91.38
34145;HTU21D;69555;53.014;8.886;2023-12-28T07:45:10;9.86;90.95
34145;HTU21D;69555;53.014;8.886;2023-12-28T07:47:37;9.86;90.76
34145;HTU21D;69555;53.014;8.886;2023-12-28T07:50:04;9.96;90.27
34145;HTU21D;69555;53.014;8.886;2023-12-28T07:52:31;10.04;89.82
34145;HTU21D;69555;53.014;8.886;2023-12-28T07:54:57;10.06;89.08
34145;HTU21D;69555;53.014;8.886;2023-12-28T07:57:25;10.08;89.02
34145;HTU21D;69555;53.014;8.886;2023-12-28T07:59:52;10.10;88.79
34145;HTU21D;69555;53.014;8.886;2023-12-28T08:02:19;10.20;87.87
34145;HTU21D;69555;53.014;8.886;2023-12-28T08:04:45;10.22;87.66
34145;HTU21D;69555;53.014;8.886;2023-12-28T08:07:12;10.24;87.77
34145;HTU21D;69555;53.014;8.886;2023-12-28T08:09:39;10.27;87.06
34145;HTU21D;69555;53.014;8.886;2023-12-28T08:12:05;10.33;87.14
34145;HTU21D;69555;53.014;8.886;2023-12-28T08:14:32;10.35;86.93
34145;HTU21D;69555;53.014;8.886;2023-12-28T08:16:59;10.37;86.49
34145;HTU21D;69555;53.014;8.886;2023-12-28T08:19:25;10.39;86.88
34145;HTU21D;69555;53.014;8.886;2023-12-28T08:21:52;10.38;86.84
34145;HTU21D;69555;53.014;8.886;2023-12-28T08:24:18;10.38;86.79
34145;HTU21D;69555;53.014;8.886;2023-12-28T08:26:45;10.40;86.00
34145;HTU21D;69555;53.014;8.886;2023-12-28T08:29:12;10.48;85.55
34145;HTU21D;69555;53.014;8.886;2023-12-28T08:31:39;10.52;85.25
34145;HTU21D;69555;53.014;8.886;2023-12-28T08:34:05;10.49;85.22
34145;HTU21D;69555;53.014;8.886;2023-12-28T08:36:33;10.55;84.64
34145;HTU21D;69555;53.014;8.886;2023-12-28T08:38:59;10.55;85.27
34145;HTU21D;69555;53.014;8.886;2023-12-28T08:41:26;10.62;84.45
34145;HTU21D;69555;53.014;8.886;2023-12-28T08:43:53;10.62;84.48
34145;HTU21D;69555;53.014;8.886;2023-12-28T08:46:22;10.56;85.52
34145;HTU21D;69555;53.014;8.886;2023-12-28T08:48:50;10.57;85.26
34145;HTU21D;69555;53.014;8.886;2023-12-28T08:51:16;10.52;86.14
34145;HTU21D;69555;53.014;8.886;2023-12-28T08:53:43;10.48;86.14
34145;HTU21D;69555;53.014;8.886;2023-12-28T08:56:21;10.54;85.26
34145;HTU21D;69555;53.014;8.886;2023-12-28T08:58:49;10.57;85.35
34145;HTU21D;69555;53.014;8.886;2023-12-28T09:01:17;10.53;85.85
34145;HTU21D;69555;53.014;8.886;2023-12-28T09:03:44;10.53;85.90
34145;HTU21D;69555;53.014;8.886;2023-12-28T09:06:11;10.59;85.70
34145;HTU21D;69555;53.014;8.886;2023-12-28T09:08:40;10.60;85.99
34145;HTU21D;69555;53.014;8.886;2023-12-28T09:11:07;10.64;86.23
34145;HTU21D;69555;53.014;8.886;2023-12-28T09:13:33;10.68;85.20
34145;HTU21D;69555;53.014;8.886;2023-12-28T09:15:59;10.70;85.66
34145;HTU21D;69555;53.014;8.886;2023-12-28T09:18:26;10.67;85.58
34145;HTU21D;69555;53.014;8.886;2023-12-28T09:20:53;10.66;85.98
34145;HTU21D;69555;53.014;8.886;2023-12-28T09:23:19;10.71;85.38
34145;HTU21D;69555;53.014;8.886;2023-12-28T09:25:46;10.78;85.00
34145;HTU21D;69555;53.014;8.886;2023-12-28T09:28:13;10.75;85.51
34145;HTU21D;69555;53.014;8.886;2023-12-28T09:30:40;10.70;85.66
34145;HTU21D;69555;53.014;8.886;2023-12-28T09:33:07;10.82;84.47
34145;HTU21D;69555;53.014;8.886;2023-12-28T09:35:33;10.74;85.14
34145;HTU21D;69555;53.014;8.886;2023-12-28T09:38:00;10.79;84.89
34145;HTU21D;69555;53.014;8.886;2023-12-28T09:40:27;10.80;85.33
34145;HTU21D;69555;53.014;8.886;2023-12-28T09:45:47;10.92;84.13
34145;HTU21D;69555;53.014;8.886;2023-12-28T09:48:18;10.92;84.43
34145;HTU21D;69555;53.014;8.886;2023-12-28T09:50:54;10.89;84.02
34145;HTU21D;69555;53.014;8.886;2023-12-28T09:53:24;10.93;84.71
34145;HTU21D;69555;53.014;8.886;2023-12-28T09:55:51;10.95;83.91
34145;HTU21D;69555;53.014;8.886;2023-12-28T09:58:19;10.93;84.12
34145;HTU21D;69555;53.014;8.886;2023-12-28T10:00:48;10.97;84.48
34145;HTU21D;69555;53.014;8.886;2023-12-28T10:03:16;11.00;84.27
34145;HTU21D;69555;53.014;8.886;2023-12-28T10:05:44;11.02;83.45
34145;HTU21D;69555;53.014;8.886;2023-12-28T10:08:15;11.09;83.29
34145;HTU21D;69555;53.014;8.886;2023-12-28T10:10:42;11.08;83.78
34145;HTU21D;69555;53.014;8.886;2023-12-28T10:13:10;11.03;84.54
34145;HTU21D;69555;53.014;8.886;2023-12-28T10:15:37;11.04;83.42
34145;HTU21D;69555;53.014;8.886;2023-12-28T10:18:06;11.02;83.84
34145;HTU21D;69555;53.014;8.886;2023-12-28T10:20:33;11.00;83.90
34145;HTU21D;69555;53.014;8.886;2023-12-28T10:23:00;10.98;84.20
34145;HTU21D;69555;53.014;8.886;2023-12-28T10:25:27;10.98;84.40
34145;HTU21D;69555;53.014;8.886;2023-12-28T10:27:54;11.00;84.47
34145;HTU21D;69555;53.014;8.886;2023-12-28T10:30:21;10.98;84.24
34145;HTU21D;69555;53.014;8.886;2023-12-28T10:32:47;11.03;83.97
34145;HTU21D;69555;53.014;8.886;2023-12-28T10:35:14;11.00;84.35
34145;HTU21D;69555;53.014;8.886;2023-12-28T10:37:42;11.01;84.37
34145;HTU21D;69555;53.014;8.886;2023-12-28T10:40:13;11.00;84.50
34145;HTU21D;69555;53.014;8.886;2023-12-28T10:42:50;10.98;84.93
34145;HTU21D;69555;53.014;8.886;2023-12-28T10:45:18;11.00;84.42
34145;HTU21D;69555;53.014;8.886;2023-12-28T10:48:13;10.99;84.87
34145;HTU21D;69555;53.014;8.886;2023-12-28T10:50:48;10.98;85.12
34145;HTU21D;69555;53.014;8.886;2023-12-28T11:01:40;11.05;84.77
34145;HTU21D;69555;53.014;8.886;2023-12-28T11:04:29;11.12;84.10
34145;HTU21D;69555;53.014;8.886;2023-12-28T11:06:58;11.20;84.23
34145;HTU21D;69555;53.014;8.886;2023-12-28T11:09:26;11.22;83.98
34145;HTU21D;69555;53.014;8.886;2023-12-28T11:11:54;11.29;83.53
34145;HTU21D;69555;53.014;8.886;2023-12-28T11:14:21;11.31;83.94
34145;HTU21D;69555;53.014;8.886;2023-12-28T11:16:48;11.39;82.84
34145;HTU21D;69555;53.014;8.886;2023-12-28T11:19:15;11.38;82.49
34145;HTU21D;69555;53.014;8.886;2023-12-28T11:21:43;11.42;82.69
34145;HTU21D;69555;53.014;8.886;2023-12-28T11:24:11;11.39;82.07
34145;HTU21D;69555;53.014;8.886;2023-12-28T11:26:38;11.34;82.70
34145;HTU21D;69555;53.014;8.886;2023-12-28T11:29:05;11.31;82.88
34145;HTU21D;69555;53.014;8.886;2023-12-28T11:31:37;11.26;82.64
34145;HTU21D;69555;53.014;8.886;2023-12-28T11:34:13;11.27;82.13
34145;HTU21D;69555;53.014;8.886;2023-12-28T11:36:51;11.29;82.75
34145;HTU21D;69555;53.014;8.886;2023-12-28T11:39:44;11.33;82.55
34145;HTU21D;69555;53.014;8.886;2023-12-28T11:42:11;11.31;82.67
34145;HTU21D;69555;53.014;8.886;2023-12-28T11:44:43;11.29;82.91
34145;HTU21D;69555;53.014;8.886;2023-12-28T11:47:25;11.24;83.22
34145;HTU21D;69555;53.014;8.886;2023-12-28T11:49:53;11.12;83.81
34145;HTU21D;69555;53.014;8.886;2023-12-28T11:52:27;11.13;83.70
34145;HTU21D;69555;53.014;8.886;2023-12-28T11:54:55;11.08;84.29
34145;HTU21D;69555;53.014;8.886;2023-12-28T11:57:22;11.07;84.00
34145;HTU21D;69555;53.014;8.886;2023-12-28T12:00:00;11.13;83.46
34145;HTU21D;69555;53.014;8.886;2023-12-28T12:02:27;11.07;84.27
34145;HTU21D;69555;53.014;8.886;2023-12-28T12:04:58;11.10;83.78
34145;HTU21D;69555;53.014;8.886;2023-12-28T12:07:28;11.08;83.81
34145;HTU21D;69555;53.014;8.886;2023-12-28T12:10:01;11.09;84.58
34145;HTU21D;69555;53.014;8.886;2023-12-28T12:12:28;11.10;83.81
34145;HTU21D;69555;53.014;8.886;2023-12-28T12:14:55;11.12;84.21
34145;HTU21D;69555;53.014;8.886;2023-12-28T12:17:23;11.17;83.90
34145;HTU21D;69555;53.014;8.886;2023-12-28T12:19:51;11.16;84.53
34145;HTU21D;69555;53.014;8.886;2023-12-28T12:22:21;11.25;83.70
34145;HTU21D;69555;53.014;8.886;2023-12-28T12:24:49;11.19;83.78
34145;HTU21D;69555;53.014;8.886;2023-12-28T12:27:17;11.26;83.68
34145;HTU21D;69555;53.014;8.886;2023-12-28T12:29:45;11.22;84.35
34145;HTU21D;69555;53.014;8.886;2023-12-28T12:32:12;11.17;84.76
34145;HTU21D;69555;53.014;8.886;2023-12-28T12:34:39;11.16;84.29
34145;HTU21D;69555;53.014;8.886;2023-12-28T12:37:07;11.17;84.79
34145;HTU21D;69555;53.014;8.886;2023-12-28T12:39:33;11.15;84.56
34145;HTU21D;69555;53.014;8.886;2023-12-28T12:42:00;11.14;84.54
34145;HTU21D;69555;53.014;8.886;2023-12-28T12:44:27;11.09;84.98
34145;HTU21D;69555;53.014;8.886;2023-12-28T12:47:01;11.13;84.61
34145;HTU21D;69555;53.014;8.886;2023-12-28T12:49:28;11.08;85.13
34145;HTU21D;69555;53.014;8.886;2023-12-28T12:51:55;11.09;83.99
34145;HTU21D;69555;53.014;8.886;2023-12-28T12:54:22;11.11;83.68
34145;HTU21D;69555;53.014;8.886;2023-12-28T12:56:51;11.14;83.41
34145;HTU21D;69555;53.014;8.886;2023-12-28T12:59:19;11.13;83.68
34145;HTU21D;69555;53.014;8.886;2023-12-28T13:01:46;11.12;84.17
34145;HTU21D;69555;53.014;8.886;2023-12-28T13:04:17;11.12;83.49
34145;HTU21D;69555;53.014;8.886;2023-12-28T13:06:44;11.15;83.35
34145;HTU21D;69555;53.014;8.886;2023-12-28T13:09:11;11.14;83.07
34145;HTU21D;69555;53.014;8.886;2023-12-28T13:11:38;11.12;83.14
34145;HTU21D;69555;53.014;8.886;2023-12-28T13:14:05;11.20;83.34
34145;HTU21D;69555;53.014;8.886;2023-12-28T13:16:32;11.13;83.07
34145;HTU21D;69555;53.014;8.886;2023-12-28T13:18:59;11.11;82.88
34145;HTU21D;69555;53.014;8.886;2023-12-28T13:21:26;11.15;82.93
34145;HTU21D;69555;53.014;8.886;2023-12-28T13:23:53;11.11;82.87
34145;HTU21D;69555;53.014;8.886;2023-12-28T13:26:19;11.14;82.38
34145;HTU21D;69555;53.014;8.886;2023-12-28T13:28:46;11.14;82.94
34145;HTU21D;69555;53.014;8.886;2023-12-28T13:31:14;11.10;83.16
34145;HTU21D;69555;53.014;8.886;2023-12-28T13:33:41;11.04;83.36
34145;HTU21D;69555;53.014;8.886;2023-12-28T13:36:08;10.98;83.74
34145;HTU21D;69555;53.014;8.886;2023-12-28T13:38:34;10.93;84.62
34145;HTU21D;69555;53.014;8.886;2023-12-28T13:41:01;10.92;85.01
34145;HTU21D;69555;53.014;8.886;2023-12-28T13:43:27;10.93;84.68
34145;HTU21D;69555;53.014;8.886;2023-12-28T13:45:54;10.94;84.03
34145;HTU21D;69555;53.014;8.886;2023-12-28T13:48:21;10.87;84.26
34145;HTU21D;69555;53.014;8.886;2023-12-28T13:50:47;10.90;84.35
34145;HTU21D;69555;53.014;8.886;2023-12-28T13:53:17;10.88;84.85
34145;HTU21D;69555;53.014;8.886;2023-12-28T13:55:43;10.82;85.52
34145;HTU21D;69555;53.014;8.886;2023-12-28T13:58:10;10.80;84.88
34145;HTU21D;69555;53.014;8.886;2023-12-28T14:00:37;10.77;83.85
34145;HTU21D;69555;53.014;8.886;2023-12-28T14:03:03;10.81;84.34
34145;HTU21D;69555;53.014;8.886;2023-12-28T14:05:30;10.84;84.65
34145;HTU21D;69555;53.014;8.886;2023-12-28T14:07:57;10.81;84.00
34145;HTU21D;69555;53.014;8.886;2023-12-28T14:10:25;10.83;83.88
34145;HTU21D;69555;53.014;8.886;2023-12-28T14:12:51;10.81;83.63
34145;HTU21D;69555;53.014;8.886;2023-12-28T14:15:18;10.81;83.98
34145;HTU21D;69555;53.014;8.886;2023-12-28T14:17:45;10.88;82.92
34145;HTU21D;69555;53.014;8.886;2023-12-28T14:20:11;10.86;83.34
34145;HTU21D;69555;53.014;8.886;2023-12-28T14:22:38;10.87;82.65
34145;HTU21D;69555;53.014;8.886;2023-12-28T14:25:06;10.88;82.41
34145;HTU21D;69555;53.014;8.886;2023-12-28T14:27:33;10.92;81.64
34145;HTU21D;69555;53.014;8.886;2023-12-28T14:30:00;10.86;83.08
34145;HTU21D;69555;53.014;8.886;2023-12-28T14:32:29;10.72;83.49
34145;HTU21D;69555;53.014;8.886;2023-12-28T14:34:57;10.79;82.34
34145;HTU21D;69555;53.014;8.886;2023-12-28T14:37:23;10.78;82.31
34145;HTU21D;69555;53.014;8.886;2023-12-28T14:39:49;10.75;82.65
34145;HTU21D;69555;53.014;8.886;2023-12-28T14:42:15;10.65;83.28
34145;HTU21D;69555;53.014;8.886;2023-12-28T14:44:42;10.67;82.77
34145;HTU21D;69555;53.014;8.886;2023-12-28T14:47:08;10.67;82.81
34145;HTU21D;69555;53.014;8.886;2023-12-28T14:49:35;10.64;82.72
34145;HTU21D;69555;53.014;8.886;2023-12-28T14:52:02;10.65;82.86
34145;HTU21D;69555;53.014;8.886;2023-12-28T14:54:28;10.62;83.77
34145;HTU21D;69555;53.014;8.886;2023-12-28T14:56:55;10.63;83.08
34145;HTU21D;69555;53.014;8.886;2023-12-28T14:59:22;10.64;83.36
34145;HTU21D;69555;53.014;8.886;2023-12-28T15:01:49;10.65;83.59
34145;HTU21D;69555;53.014;8.886;2023-12-28T15:04:16;10.70;83.02
34145;HTU21D;69555;53.014;8.886;2023-12-28T15:06:43;10.70;83.07
34145;HTU21D;69555;53.014;8.886;2023-12-28T15:09:09;10.67;83.57
34145;HTU21D;69555;53.014;8.886;2023-12-28T15:11:36;10.70;82.90
34145;HTU21D;69555;53.014;8.886;2023-12-28T15:14:03;10.73;82.81
34145;HTU21D;69555;53.014;8.886;2023-12-28T15:16:31;10.71;83.38
34145;HTU21D;69555;53.014;8.886;2023-12-28T15:18:58;10.75;82.68
34145;HTU21D;69555;53.014;8.886;2023-12-28T15:21:24;10.79;82.49
34145;HTU21D;69555;53.014;8.886;2023-12-28T15:23:51;10.74;82.73
34145;HTU21D;69555;53.014;8.886;2023-12-28T15:26:18;10.67;83.58
34145;HTU21D;69555;53.014;8.886;2023-12-28T15:28:47;10.67;83.00
34145;HTU21D;69555;53.014;8.886;2023-12-28T15:31:17;10.66;83.14
34145;HTU21D;69555;53.014;8.886;2023-12-28T15:33:43;10.60;83.15
34145;HTU21D;69555;53.014;8.886;2023-12-28T15:36:10;10.64;83.31